Terminal Aerodrome Forecast
Issued by NWS

Home | Current Version | Previous Version | Text Only | Print | Product List | Glossary On
Versions: 1 2 3 4 5 6 7 8 9 10 11 12 13 14 15 16 17 18
000
FTUS42 KFFC 291723
TAFRYY
TAF
KRYY 291723Z 2918/3018 21009G15KT P6SM BKN200
     FM292000 22010G16KT P6SM BKN090
     FM292300 22008KT P6SM SCT025 BKN080
     FM300100 24005KT P6SM BKN025 OVC080 PROB30 3003/3005 -RA BKN012
     FM300900 32011G18KT P6SM OVC040
     FM301400 33014G23KT P6SM SCT045=

USA.gov is the U.S. government's official web portal to all federal, state and local government web resources and services.